sensor_id;sensor_type;location;lat;lon;timestamp;pressure;altitude;pressure_sealevel;temperature;humidity
41690;BME280;27372;42.658;23.256;2023-04-25T00:01:27;93032.44;;;9.35;100.00
41690;BME280;27372;42.658;23.256;2023-04-25T00:03:53;93034.69;;;9.48;100.00
41690;BME280;27372;42.658;23.256;2023-04-25T00:06:18;93025.78;;;9.22;100.00
41690;BME280;27372;42.658;23.256;2023-04-25T00:08:45;93023.81;;;9.12;100.00
41690;BME280;27372;42.658;23.256;2023-04-25T00:11:10;93010.94;;;9.32;100.00
41690;BME280;27372;42.658;23.256;2023-04-25T00:13:38;93007.19;;;9.51;100.00
41690;BME280;27372;42.658;23.256;2023-04-25T00:16:06;92993.16;;;9.67;100.00
41690;BME280;27372;42.658;23.256;2023-04-25T00:18:33;92999.38;;;9.88;98.09
41690;BME280;27372;42.658;23.256;2023-04-25T00:20:58;92994.72;;;9.63;100.00
41690;BME280;27372;42.658;23.256;2023-04-25T00:23:23;92989.19;;;9.32;100.00
41690;BME280;27372;42.658;23.256;2023-04-25T00:25:52;92997.22;;;9.20;100.00
41690;BME280;27372;42.658;23.256;2023-04-25T00:28:17;92995.22;;;9.05;100.00
41690;BME280;27372;42.658;23.256;2023-04-25T00:30:43;92998.97;;;9.14;100.00
41690;BME280;27372;42.658;23.256;2023-04-25T00:33:09;92989.66;;;9.01;100.00
41690;BME280;27372;42.658;23.256;2023-04-25T00:35:35;92978.41;;;9.01;100.00
41690;BME280;27372;42.658;23.256;2023-04-25T00:38:00;92979.75;;;8.81;100.00
41690;BME280;27372;42.658;23.256;2023-04-25T00:40:26;92980.59;;;8.65;100.00
41690;BME280;27372;42.658;23.256;2023-04-25T00:42:55;92996.66;;;8.74;100.00
41690;BME280;27372;42.658;23.256;2023-04-25T00:45:20;92996.41;;;8.75;100.00
41690;BME280;27372;42.658;23.256;2023-04-25T00:47:46;92994.16;;;9.06;100.00
41690;BME280;27372;42.658;23.256;2023-04-25T00:50:12;92986.22;;;9.23;100.00
41690;BME280;27372;42.658;23.256;2023-04-25T00:52:40;92990.78;;;9.33;100.00
41690;BME280;27372;42.658;23.256;2023-04-25T00:55:07;92986.88;;;9.36;100.00
41690;BME280;27372;42.658;23.256;2023-04-25T00:57:36;92979.84;;;9.41;100.00
41690;BME280;27372;42.658;23.256;2023-04-25T01:00:03;92997.44;;;9.46;100.00
41690;BME280;27372;42.658;23.256;2023-04-25T01:02:32;92968.53;;;9.36;100.00
41690;BME280;27372;42.658;23.256;2023-04-25T01:04:57;92974.59;;;9.41;100.00
41690;BME280;27372;42.658;23.256;2023-04-25T01:07:23;92969.84;;;9.38;100.00
41690;BME280;27372;42.658;23.256;2023-04-25T01:09:48;92962.00;;;9.38;100.00
41690;BME280;27372;42.658;23.256;2023-04-25T01:12:16;92972.75;;;9.42;100.00
41690;BME280;27372;42.658;23.256;2023-04-25T01:14:41;92966.94;;;9.62;100.00
41690;BME280;27372;42.658;23.256;2023-04-25T01:17:08;92970.28;;;9.57;100.00
41690;BME280;27372;42.658;23.256;2023-04-25T01:19:34;92968.59;;;9.73;100.00
41690;BME280;27372;42.658;23.256;2023-04-25T01:21:59;92978.16;;;9.90;100.00
41690;BME280;27372;42.658;23.256;2023-04-25T01:24:25;92976.38;;;9.63;100.00
41690;BME280;27372;42.658;23.256;2023-04-25T01:26:51;92966.66;;;9.63;100.00
41690;BME280;27372;42.658;23.256;2023-04-25T01:29:20;92975.91;;;9.71;100.00
41690;BME280;27372;42.658;23.256;2023-04-25T01:31:46;92974.28;;;9.65;100.00
41690;BME280;27372;42.658;23.256;2023-04-25T01:34:12;92977.22;;;9.74;100.00
41690;BME280;27372;42.658;23.256;2023-04-25T01:36:39;92968.66;;;9.84;100.00
41690;BME280;27372;42.658;23.256;2023-04-25T01:39:05;92972.28;;;9.77;100.00
41690;BME280;27372;42.658;23.256;2023-04-25T01:41:30;92971.66;;;9.98;100.00
41690;BME280;27372;42.658;23.256;2023-04-25T01:43:56;92979.34;;;10.09;100.00
41690;BME280;27372;42.658;23.256;2023-04-25T01:46:22;92983.03;;;10.14;100.00
41690;BME280;27372;42.658;23.256;2023-04-25T01:48:47;92980.00;;;10.27;100.00
41690;BME280;27372;42.658;23.256;2023-04-25T01:51:13;92988.25;;;10.41;100.00
41690;BME280;27372;42.658;23.256;2023-04-25T01:53:39;92982.13;;;10.35;100.00
41690;BME280;27372;42.658;23.256;2023-04-25T01:56:05;92984.75;;;10.35;100.00
41690;BME280;27372;42.658;23.256;2023-04-25T01:58:30;92977.47;;;10.43;100.00
41690;BME280;27372;42.658;23.256;2023-04-25T02:00:56;92983.81;;;10.52;100.00
41690;BME280;27372;42.658;23.256;2023-04-25T02:03:21;92981.19;;;10.52;100.00
41690;BME280;27372;42.658;23.256;2023-04-25T02:05:47;92981.19;;;10.52;100.00
41690;BME280;27372;42.658;23.256;2023-04-25T02:08:12;92968.34;;;10.55;100.00
41690;BME280;27372;42.658;23.256;2023-04-25T02:10:38;92973.91;;;10.64;100.00
41690;BME280;27372;42.658;23.256;2023-04-25T02:13:03;92962.72;;;10.36;100.00
41690;BME280;27372;42.658;23.256;2023-04-25T02:15:30;92959.38;;;10.08;100.00
41690;BME280;27372;42.658;23.256;2023-04-25T02:17:56;92956.38;;;10.27;100.00
41690;BME280;27372;42.658;23.256;2023-04-25T02:20:22;92942.03;;;10.40;100.00
41690;BME280;27372;42.658;23.256;2023-04-25T02:22:48;92954.13;;;10.46;100.00
41690;BME280;27372;42.658;23.256;2023-04-25T02:25:14;92947.88;;;10.52;100.00
41690;BME280;27372;42.658;23.256;2023-04-25T02:27:41;92949.75;;;10.62;100.00
41690;BME280;27372;42.658;23.256;2023-04-25T02:30:06;92942.44;;;10.80;100.00
41690;BME280;27372;42.658;23.256;2023-04-25T02:32:33;92945.06;;;10.80;100.00
41690;BME280;27372;42.658;23.256;2023-04-25T02:34:59;92935.25;;;10.54;100.00
41690;BME280;27372;42.658;23.256;2023-04-25T02:37:32;92931.09;;;10.59;100.00
41690;BME280;27372;42.658;23.256;2023-04-25T02:39:58;92941.00;;;10.41;100.00
41690;BME280;27372;42.658;23.256;2023-04-25T02:42:23;92936.50;;;10.41;100.00
41690;BME280;27372;42.658;23.256;2023-04-25T02:44:49;92938.13;;;10.48;100.00
41690;BME280;27372;42.658;23.256;2023-04-25T02:47:14;92924.16;;;9.94;100.00
41690;BME280;27372;42.658;23.256;2023-04-25T02:49:40;92911.94;;;10.10;100.00
41690;BME280;27372;42.658;23.256;2023-04-25T02:52:05;92913.19;;;9.64;100.00
41690;BME280;27372;42.658;23.256;2023-04-25T02:54:31;92909.53;;;9.33;100.00
41690;BME280;27372;42.658;23.256;2023-04-25T02:56:56;92915.25;;;9.57;100.00
41690;BME280;27372;42.658;23.256;2023-04-25T02:59:22;92902.53;;;9.11;100.00
41690;BME280;27372;42.658;23.256;2023-04-25T03:01:47;92910.31;;;9.33;100.00
41690;BME280;27372;42.658;23.256;2023-04-25T03:04:13;92906.41;;;9.36;100.00
41690;BME280;27372;42.658;23.256;2023-04-25T03:06:41;92906.97;;;9.38;100.00
41690;BME280;27372;42.658;23.256;2023-04-25T03:09:06;92905.72;;;9.46;100.00
41690;BME280;27372;42.658;23.256;2023-04-25T03:11:32;92904.06;;;9.35;100.00
41690;BME280;27372;42.658;23.256;2023-04-25T03:13:57;92910.69;;;9.47;100.00
41690;BME280;27372;42.658;23.256;2023-04-25T03:16:25;92900.38;;;9.30;100.00
41690;BME280;27372;42.658;23.256;2023-04-25T03:18:51;92898.44;;;9.53;100.00
41690;BME280;27372;42.658;23.256;2023-04-25T03:21:16;92907.31;;;9.47;100.00
41690;BME280;27372;42.658;23.256;2023-04-25T03:23:42;92907.22;;;9.37;100.00
41690;BME280;27372;42.658;23.256;2023-04-25T03:26:07;92899.44;;;9.47;100.00
41690;BME280;27372;42.658;23.256;2023-04-25T03:28:33;92908.06;;;9.47;100.00
41690;BME280;27372;42.658;23.256;2023-04-25T03:30:58;92894.88;;;9.32;100.00
41690;BME280;27372;42.658;23.256;2023-04-25T03:33:26;92893.78;;;9.28;100.00
41690;BME280;27372;42.658;23.256;2023-04-25T03:35:54;92892.53;;;9.36;100.00
41690;BME280;27372;42.658;23.256;2023-04-25T03:38:20;92892.25;;;9.32;100.00
41690;BME280;27372;42.658;23.256;2023-04-25T03:40:51;92898.88;;;9.45;100.00
41690;BME280;27372;42.658;23.256;2023-04-25T03:43:16;92898.03;;;9.72;100.00
41690;BME280;27372;42.658;23.256;2023-04-25T03:45:42;92890.28;;;9.87;100.00
41690;BME280;27372;42.658;23.256;2023-04-25T03:48:07;92877.94;;;9.88;100.00
41690;BME280;27372;42.658;23.256;2023-04-25T03:50:34;92882.75;;;10.01;100.00
41690;BME280;27372;42.658;23.256;2023-04-25T03:53:00;92875.53;;;10.29;100.00
41690;BME280;27372;42.658;23.256;2023-04-25T03:55:25;92876.56;;;10.28;100.00
41690;BME280;27372;42.658;23.256;2023-04-25T03:57:51;92876.84;;;10.26;100.00
41690;BME280;27372;42.658;23.256;2023-04-25T04:00:16;92894.66;;;10.24;100.00
41690;BME280;27372;42.658;23.256;2023-04-25T04:02:42;92902.84;;;10.33;100.00
41690;BME280;27372;42.658;23.256;2023-04-25T04:05:08;92917.28;;;10.31;100.00
41690;BME280;27372;42.658;23.256;2023-04-25T04:07:33;92911.44;;;10.18;100.00
41690;BME280;27372;42.658;23.256;2023-04-25T04:10:05;92908.06;;;10.23;100.00
41690;BME280;27372;42.658;23.256;2023-04-25T04:13:00;92904.78;;;10.53;100.00
41690;BME280;27372;42.658;23.256;2023-04-25T04:15:25;92915.59;;;10.62;100.00
41690;BME280;27372;42.658;23.256;2023-04-25T04:17:50;92912.22;;;10.67;100.00
41690;BME280;27372;42.658;23.256;2023-04-25T04:20:16;92914.53;;;10.53;100.00
41690;BME280;27372;42.658;23.256;2023-04-25T04:22:41;92910.59;;;10.55;100.00
41690;BME280;27372;42.658;23.256;2023-04-25T04:25:07;92925.00;;;10.48;100.00
41690;BME280;27372;42.658;23.256;2023-04-25T04:27:33;92900.94;;;10.66;100.00
41690;BME280;27372;42.658;23.256;2023-04-25T04:29:59;92911.22;;;10.25;100.00
41690;BME280;27372;42.658;23.256;2023-04-25T04:32:28;92914.13;;;10.34;100.00
41690;BME280;27372;42.658;23.256;2023-04-25T04:34:55;92908.31;;;10.21;100.00
41690;BME280;27372;42.658;23.256;2023-04-25T04:37:21;92892.22;;;10.07;100.00
41690;BME280;27372;42.658;23.256;2023-04-25T04:39:47;92890.63;;;10.01;100.00
41690;BME280;27372;42.658;23.256;2023-04-25T04:42:12;92895.97;;;10.22;100.00
41690;BME280;27372;42.658;23.256;2023-04-25T04:44:38;92893.44;;;9.89;100.00
41690;BME280;27372;42.658;23.256;2023-04-25T04:47:04;92893.09;;;10.23;100.00
41690;BME280;27372;42.658;23.256;2023-04-25T04:49:31;92895.59;;;9.98;100.00
41690;BME280;27372;42.658;23.256;2023-04-25T04:51:57;92913.31;;;10.23;100.00
41690;BME280;27372;42.658;23.256;2023-04-25T04:54:22;92915.25;;;10.38;100.00
41690;BME280;27372;42.658;23.256;2023-04-25T04:56:48;92924.47;;;10.51;100.00
41690;BME280;27372;42.658;23.256;2023-04-25T04:59:16;92924.53;;;10.61;100.00
41690;BME280;27372;42.658;23.256;2023-04-25T05:01:41;92924.53;;;10.56;100.00
41690;BME280;27372;42.658;23.256;2023-04-25T05:04:07;92930.53;;;10.51;100.00
41690;BME280;27372;42.658;23.256;2023-04-25T05:06:32;92934.78;;;10.63;100.00
41690;BME280;27372;42.658;23.256;2023-04-25T05:09:01;92924.31;;;12.69;100.00
41690;BME280;27372;42.658;23.256;2023-04-25T05:11:45;92937.41;;;13.35;100.00
41690;BME280;27372;42.658;23.256;2023-04-25T05:14:12;92933.00;;;13.70;100.00
41690;BME280;27372;42.658;23.256;2023-04-25T05:16:53;92918.53;;;13.23;95.67
41690;BME280;27372;42.658;23.256;2023-04-25T05:19:19;92922.88;;;14.12;99.23
41690;BME280;27372;42.658;23.256;2023-04-25T05:21:44;92923.91;;;14.40;94.61
41690;BME280;27372;42.658;23.256;2023-04-25T05:24:11;92933.22;;;14.33;88.69
41690;BME280;27372;42.658;23.256;2023-04-25T05:26:37;92931.44;;;14.28;85.80
41690;BME280;27372;42.658;23.256;2023-04-25T05:29:03;92944.06;;;13.72;88.00
41690;BME280;27372;42.658;23.256;2023-04-25T05:31:28;92944.22;;;13.46;90.16
41690;BME280;27372;42.658;23.256;2023-04-25T05:33:54;92947.47;;;13.28;90.83
41690;BME280;27372;42.658;23.256;2023-04-25T05:36:20;92935.56;;;12.85;93.91
41690;BME280;27372;42.658;23.256;2023-04-25T05:38:45;92954.97;;;12.29;96.30
41690;BME280;27372;42.658;23.256;2023-04-25T05:41:11;92944.22;;;12.10;98.32
41690;BME280;27372;42.658;23.256;2023-04-25T05:43:36;92943.66;;;12.13;99.19
41690;BME280;27372;42.658;23.256;2023-04-25T05:46:02;92941.28;;;11.39;100.00
41690;BME280;27372;42.658;23.256;2023-04-25T05:48:30;92934.16;;;11.14;100.00
41690;BME280;27372;42.658;23.256;2023-04-25T05:50:55;92946.00;;;11.37;100.00
41690;BME280;27372;42.658;23.256;2023-04-25T05:53:22;92937.75;;;10.87;100.00
41690;BME280;27372;42.658;23.256;2023-04-25T05:55:47;92928.91;;;11.24;100.00
41690;BME280;27372;42.658;23.256;2023-04-25T05:58:13;92930.38;;;10.89;100.00
41690;BME280;27372;42.658;23.256;2023-04-25T06:00:39;92930.72;;;11.03;100.00
41690;BME280;27372;42.658;23.256;2023-04-25T06:03:06;92927.56;;;11.01;100.00
41690;BME280;27372;42.658;23.256;2023-04-25T06:05:34;92931.28;;;11.21;100.00
41690;BME280;27372;42.658;23.256;2023-04-25T06:08:00;92938.81;;;10.91;100.00
41690;BME280;27372;42.658;23.256;2023-04-25T06:10:26;92937.28;;;11.06;100.00
41690;BME280;27372;42.658;23.256;2023-04-25T06:12:55;92911.47;;;10.82;100.00
41690;BME280;27372;42.658;23.256;2023-04-25T06:15:21;92928.31;;;10.91;100.00
41690;BME280;27372;42.658;23.256;2023-04-25T06:17:46;92927.50;;;10.80;100.00
41690;BME280;27372;42.658;23.256;2023-04-25T06:20:12;92934.38;;;10.97;100.00
41690;BME280;27372;42.658;23.256;2023-04-25T06:22:37;92947.78;;;11.11;100.00
41690;BME280;27372;42.658;23.256;2023-04-25T06:25:03;92940.22;;;11.19;100.00
41690;BME280;27372;42.658;23.256;2023-04-25T06:27:32;92946.56;;;11.65;100.00
41690;BME280;27372;42.658;23.256;2023-04-25T06:29:59;92948.97;;;11.98;100.00
41690;BME280;27372;42.658;23.256;2023-04-25T06:32:25;92950.50;;;12.24;100.00
41690;BME280;27372;42.658;23.256;2023-04-25T06:34:52;92947.50;;;12.62;100.00
41690;BME280;27372;42.658;23.256;2023-04-25T06:37:20;92941.19;;;12.63;99.27
41690;BME280;27372;42.658;23.256;2023-04-25T06:39:46;92957.38;;;12.10;100.00
41690;BME280;27372;42.658;23.256;2023-04-25T06:42:11;92959.44;;;11.61;100.00
41690;BME280;27372;42.658;23.256;2023-04-25T06:44:37;92956.31;;;11.85;100.00
41690;BME280;27372;42.658;23.256;2023-04-25T06:47:02;92972.84;;;12.37;100.00
41690;BME280;27372;42.658;23.256;2023-04-25T06:49:28;92963.91;;;12.38;100.00
41690;BME280;27372;42.658;23.256;2023-04-25T06:51:53;92960.22;;;12.34;99.43
41690;BME280;27372;42.658;23.256;2023-04-25T06:54:18;92959.44;;;12.34;99.50
41690;BME280;27372;42.658;23.256;2023-04-25T06:56:44;92954.66;;;12.46;99.35
41690;BME280;27372;42.658;23.256;2023-04-25T06:59:09;92957.06;;;11.96;98.53
41690;BME280;27372;42.658;23.256;2023-04-25T07:01:35;92962.06;;;12.23;98.44
41690;BME280;27372;42.658;23.256;2023-04-25T07:04:00;92963.44;;;12.05;98.75
41690;BME280;27372;42.658;23.256;2023-04-25T07:06:29;92948.41;;;12.11;99.57
41690;BME280;27372;42.658;23.256;2023-04-25T07:08:54;92964.19;;;12.26;99.18
41690;BME280;27372;42.658;23.256;2023-04-25T07:11:20;92958.41;;;12.24;97.13
41690;BME280;27372;42.658;23.256;2023-04-25T07:13:49;92944.34;;;12.60;96.76
41690;BME280;27372;42.658;23.256;2023-04-25T07:16:14;92943.03;;;12.63;96.17
41690;BME280;27372;42.658;23.256;2023-04-25T07:18:41;92944.66;;;12.43;95.75
41690;BME280;27372;42.658;23.256;2023-04-25T07:21:06;92936.41;;;12.70;96.85
41690;BME280;27372;42.658;23.256;2023-04-25T07:23:31;92955.63;;;12.81;98.00
41690;BME280;27372;42.658;23.256;2023-04-25T07:25:57;92945.19;;;13.11;95.36
41690;BME280;27372;42.658;23.256;2023-04-25T07:28:22;92945.19;;;13.16;92.64
41690;BME280;27372;42.658;23.256;2023-04-25T07:30:48;92933.31;;;13.13;93.66
41690;BME280;27372;42.658;23.256;2023-04-25T07:33:13;92937.81;;;13.58;92.68
41690;BME280;27372;42.658;23.256;2023-04-25T07:35:39;92948.81;;;13.70;92.37
41690;BME280;27372;42.658;23.256;2023-04-25T07:38:20;92954.88;;;14.05;90.01
41690;BME280;27372;42.658;23.256;2023-04-25T07:40:45;92946.56;;;13.53;89.28
41690;BME280;27372;42.658;23.256;2023-04-25T07:43:10;92943.97;;;13.48;90.43
41690;BME280;27372;42.658;23.256;2023-04-25T07:45:39;92947.66;;;13.47;92.28
41690;BME280;27372;42.658;23.256;2023-04-25T07:48:05;92949.75;;;13.85;89.82
41690;BME280;27372;42.658;23.256;2023-04-25T07:50:31;92952.41;;;13.85;88.35
41690;BME280;27372;42.658;23.256;2023-04-25T07:52:56;92938.19;;;13.80;88.04
41690;BME280;27372;42.658;23.256;2023-04-25T07:55:22;92960.19;;;13.20;82.80
41690;BME280;27372;42.658;23.256;2023-04-25T07:57:50;92943.59;;;13.15;72.25
41690;BME280;27372;42.658;23.256;2023-04-25T08:00:16;92946.41;;;13.39;70.11
41690;BME280;27372;42.658;23.256;2023-04-25T08:02:44;92930.28;;;13.41;69.57
41690;BME280;27372;42.658;23.256;2023-04-25T08:05:10;92935.31;;;13.77;67.89
41690;BME280;27372;42.658;23.256;2023-04-25T08:07:40;92945.19;;;13.95;65.42
41690;BME280;27372;42.658;23.256;2023-04-25T08:10:07;92956.75;;;13.70;69.62
41690;BME280;27372;42.658;23.256;2023-04-25T08:12:32;92937.00;;;13.62;68.41
41690;BME280;27372;42.658;23.256;2023-04-25T08:14:58;92950.25;;;13.57;67.66
41690;BME280;27372;42.658;23.256;2023-04-25T08:17:23;92942.94;;;13.84;65.84
41690;BME280;27372;42.658;23.256;2023-04-25T08:19:54;92931.72;;;13.97;65.15
41690;BME280;27372;42.658;23.256;2023-04-25T08:22:20;92926.25;;;14.18;66.34
41690;BME280;27372;42.658;23.256;2023-04-25T08:24:45;92926.56;;;14.11;69.05
41690;BME280;27372;42.658;23.256;2023-04-25T08:27:12;92928.28;;;14.26;67.30
41690;BME280;27372;42.658;23.256;2023-04-25T08:29:38;92921.47;;;13.61;71.68
41690;BME280;27372;42.658;23.256;2023-04-25T08:32:03;92913.78;;;13.64;77.18
41690;BME280;27372;42.658;23.256;2023-04-25T08:34:29;92930.13;;;13.22;75.29
41690;BME280;27372;42.658;23.256;2023-04-25T08:36:54;92925.56;;;13.38;77.47
41690;BME280;27372;42.658;23.256;2023-04-25T08:39:20;92926.75;;;13.56;76.88
41690;BME280;27372;42.658;23.256;2023-04-25T08:41:46;92919.88;;;14.24;74.87
41690;BME280;27372;42.658;23.256;2023-04-25T08:44:16;92930.34;;;14.83;77.44
41690;BME280;27372;42.658;23.256;2023-04-25T08:46:42;92922.69;;;14.57;69.14
41690;BME280;27372;42.658;23.256;2023-04-25T08:49:08;92909.75;;;14.31;72.23
41690;BME280;27372;42.658;23.256;2023-04-25T08:51:44;92921.59;;;14.58;72.72
41690;BME280;27372;42.658;23.256;2023-04-25T08:54:12;92915.50;;;14.87;68.66
41690;BME280;27372;42.658;23.256;2023-04-25T08:56:41;92920.63;;;14.54;65.67
41690;BME280;27372;42.658;23.256;2023-04-25T08:59:09;92917.84;;;14.64;62.39
41690;BME280;27372;42.658;23.256;2023-04-25T09:01:35;92912.56;;;14.40;64.98
41690;BME280;27372;42.658;23.256;2023-04-25T09:04:01;92914.31;;;15.17;61.17
41690;BME280;27372;42.658;23.256;2023-04-25T09:06:28;92927.03;;;15.15;60.60
41690;BME280;27372;42.658;23.256;2023-04-25T09:08:54;92906.44;;;14.93;60.73
41690;BME280;27372;42.658;23.256;2023-04-25T09:11:19;92906.16;;;15.52;62.58
41690;BME280;27372;42.658;23.256;2023-04-25T09:13:45;92896.09;;;15.16;58.82
41690;BME280;27372;42.658;23.256;2023-04-25T09:16:11;92885.28;;;15.31;59.84
41690;BME280;27372;42.658;23.256;2023-04-25T09:18:36;92903.19;;;14.77;57.22
41690;BME280;27372;42.658;23.256;2023-04-25T09:21:07;92920.84;;;14.33;55.30
41690;BME280;27372;42.658;23.256;2023-04-25T09:23:43;92917.81;;;14.16;56.79
41690;BME280;27372;42.658;23.256;2023-04-25T09:26:09;92908.47;;;13.99;55.05
41690;BME280;27372;42.658;23.256;2023-04-25T09:28:35;92927.78;;;14.24;55.71
41690;BME280;27372;42.658;23.256;2023-04-25T09:31:01;92918.97;;;14.34;55.11
41690;BME280;27372;42.658;23.256;2023-04-25T09:33:36;92911.66;;;14.50;55.07
41690;BME280;27372;42.658;23.256;2023-04-25T09:36:07;92915.59;;;14.52;54.89
41690;BME280;27372;42.658;23.256;2023-04-25T09:38:40;92917.59;;;15.09;51.16
41690;BME280;27372;42.658;23.256;2023-04-25T09:41:07;92909.69;;;16.13;53.00
41690;BME280;27372;42.658;23.256;2023-04-25T09:43:33;92907.69;;;16.52;51.77
41690;BME280;27372;42.658;23.256;2023-04-25T09:45:58;92913.97;;;16.84;47.86
41690;BME280;27372;42.658;23.256;2023-04-25T09:48:26;92893.94;;;16.78;48.47
41690;BME280;27372;42.658;23.256;2023-04-25T09:53:34;92887.66;;;16.46;49.08
41690;BME280;27372;42.658;23.256;2023-04-25T09:56:06;92875.16;;;15.72;48.92
41690;BME280;27372;42.658;23.256;2023-04-25T09:58:33;92877.91;;;16.13;49.39
41690;BME280;27372;42.658;23.256;2023-04-25T10:01:04;92908.31;;;15.83;50.99
41690;BME280;27372;42.658;23.256;2023-04-25T10:03:47;92904.03;;;15.16;50.45
41690;BME280;27372;42.658;23.256;2023-04-25T10:06:19;92932.06;;;14.44;53.73
41690;BME280;27372;42.658;23.256;2023-04-25T10:08:48;92959.38;;;13.25;61.36
41690;BME280;27372;42.658;23.256;2023-04-25T10:11:15;92934.72;;;12.19;73.44
41690;BME280;27372;42.658;23.256;2023-04-25T10:13:41;92932.63;;;12.01;80.56
41690;BME280;27372;42.658;23.256;2023-04-25T10:16:07;92929.16;;;12.31;81.59
41690;BME280;27372;42.658;23.256;2023-04-25T10:18:33;92929.84;;;12.68;75.93
41690;BME280;27372;42.658;23.256;2023-04-25T10:21:03;92927.63;;;13.46;70.35
41690;BME280;27372;42.658;23.256;2023-04-25T10:23:30;92917.69;;;14.31;70.16
41690;BME280;27372;42.658;23.256;2023-04-25T10:25:57;92895.22;;;15.40;67.26
41690;BME280;27372;42.658;23.256;2023-04-25T10:28:23;92909.09;;;16.03;52.10
41690;BME280;27372;42.658;23.256;2023-04-25T10:31:07;92879.22;;;16.44;52.56
41690;BME280;27372;42.658;23.256;2023-04-25T10:33:37;92882.56;;;16.22;51.82
41690;BME280;27372;42.658;23.256;2023-04-25T10:36:13;92877.63;;;16.71;58.94
41690;BME280;27372;42.658;23.256;2023-04-25T10:38:42;92877.66;;;16.57;55.08
41690;BME280;27372;42.658;23.256;2023-04-25T10:41:08;92902.91;;;15.93;52.92
41690;BME280;27372;42.658;23.256;2023-04-25T10:43:35;92869.41;;;15.50;52.04
41690;BME280;27372;42.658;23.256;2023-04-25T10:46:17;92891.59;;;15.35;53.83
41690;BME280;27372;42.658;23.256;2023-04-25T10:48:49;92875.41;;;15.37;54.27
41690;BME280;27372;42.658;23.256;2023-04-25T10:51:29;92882.94;;;15.11;54.93
41690;BME280;27372;42.658;23.256;2023-04-25T10:54:08;92880.91;;;15.21;54.57
41690;BME280;27372;42.658;23.256;2023-04-25T10:56:38;92883.66;;;15.16;54.81
41690;BME280;27372;42.658;23.256;2023-04-25T10:59:17;92888.13;;;16.20;53.17
41690;BME280;27372;42.658;23.256;2023-04-25T11:01:47;92895.06;;;18.41;46.63
41690;BME280;27372;42.658;23.256;2023-04-25T11:04:30;92877.19;;;18.02;46.47
41690;BME280;27372;42.658;23.256;2023-04-25T11:09:28;92885.31;;;17.37;46.61
41690;BME280;27372;42.658;23.256;2023-04-25T11:11:57;92880.94;;;17.18;49.62
41690;BME280;27372;42.658;23.256;2023-04-25T11:14:24;92871.28;;;17.91;48.63
41690;BME280;27372;42.658;23.256;2023-04-25T11:16:56;92870.13;;;18.77;47.09
41690;BME280;27372;42.658;23.256;2023-04-25T11:19:23;92881.56;;;17.61;48.09
41690;BME280;27372;42.658;23.256;2023-04-25T11:21:49;92871.38;;;16.67;48.30
41690;BME280;27372;42.658;23.256;2023-04-25T11:24:16;92867.34;;;16.55;51.01
41690;BME280;27372;42.658;23.256;2023-04-25T11:26:43;92868.41;;;16.82;52.67
41690;BME280;27372;42.658;23.256;2023-04-25T11:29:09;92865.97;;;16.16;54.42
41690;BME280;27372;42.658;23.256;2023-04-25T11:31:34;92869.84;;;15.91;57.46
41690;BME280;27372;42.658;23.256;2023-04-25T11:34:00;92873.41;;;15.81;58.82
41690;BME280;27372;42.658;23.256;2023-04-25T11:36:26;92891.72;;;15.44;60.48
41690;BME280;27372;42.658;23.256;2023-04-25T11:38:52;92885.34;;;14.64;62.39
41690;BME280;27372;42.658;23.256;2023-04-25T11:41:19;92906.75;;;14.13;65.26
41690;BME280;27372;42.658;23.256;2023-04-25T11:43:44;92899.97;;;13.38;66.88
41690;BME280;27372;42.658;23.256;2023-04-25T11:46:10;92906.94;;;13.18;71.85
41690;BME280;27372;42.658;23.256;2023-04-25T11:48:40;92905.03;;;12.74;69.83
41690;BME280;27372;42.658;23.256;2023-04-25T11:51:06;92894.97;;;12.86;72.42
41690;BME280;27372;42.658;23.256;2023-04-25T11:53:31;92880.81;;;12.77;72.67
41690;BME280;27372;42.658;23.256;2023-04-25T11:55:57;92888.91;;;13.71;72.69
41690;BME280;27372;42.658;23.256;2023-04-25T11:58:22;92864.97;;;14.21;70.30
41690;BME280;27372;42.658;23.256;2023-04-25T12:00:48;92861.75;;;15.49;68.33
41690;BME280;27372;42.658;23.256;2023-04-25T12:03:13;92852.03;;;16.66;66.32
41690;BME280;27372;42.658;23.256;2023-04-25T12:05:39;92850.03;;;17.59;64.32
41690;BME280;27372;42.658;23.256;2023-04-25T12:08:15;92853.44;;;18.05;64.22
41690;BME280;27372;42.658;23.256;2023-04-25T12:10:42;92865.25;;;19.37;59.83
41690;BME280;27372;42.658;23.256;2023-04-25T12:13:22;92860.69;;;19.55;50.00
41690;BME280;27372;42.658;23.256;2023-04-25T12:15:48;92860.69;;;17.91;49.83
41690;BME280;27372;42.658;23.256;2023-04-25T12:18:14;92859.38;;;18.02;49.00
41690;BME280;27372;42.658;23.256;2023-04-25T12:20:45;92853.25;;;17.47;50.31
41690;BME280;27372;42.658;23.256;2023-04-25T12:23:10;92864.09;;;16.30;51.10
41690;BME280;27372;42.658;23.256;2023-04-25T12:25:44;92859.53;;;15.89;53.12
41690;BME280;27372;42.658;23.256;2023-04-25T12:28:21;92857.78;;;15.32;55.81
41690;BME280;27372;42.658;23.256;2023-04-25T12:33:22;92883.00;;;15.25;65.44
41690;BME280;27372;42.658;23.256;2023-04-25T12:35:49;92894.25;;;14.49;68.04
41690;BME280;27372;42.658;23.256;2023-04-25T12:38:28;92910.97;;;14.14;70.07
41690;BME280;27372;42.658;23.256;2023-04-25T12:40:55;92897.81;;;13.80;69.17
41690;BME280;27372;42.658;23.256;2023-04-25T12:43:21;92905.66;;;13.56;68.58
41690;BME280;27372;42.658;23.256;2023-04-25T12:45:51;92917.25;;;13.55;69.66
41690;BME280;27372;42.658;23.256;2023-04-25T12:48:17;92918.16;;;13.74;72.82
41690;BME280;27372;42.658;23.256;2023-04-25T12:50:46;92909.81;;;13.96;72.89
41690;BME280;27372;42.658;23.256;2023-04-25T12:53:18;92933.72;;;14.10;74.07
41690;BME280;27372;42.658;23.256;2023-04-25T12:55:44;92915.94;;;13.92;75.19